Time;durP1;ratioP1;P1;durP2;ratioP2;P2;SDS_P1;SDS_P2;PMS_P1;PMS_P2;Temp;Humidity;BMP_temperature;BMP_pressure;BME280_temperature;BME280_humidity;BME280_pressure;Samples;Min_cycle;Max_cycle;Signal;HPM_P1;HPM_P2
2023/04/19 00:00:43;;;;;;;12.82;8.45;;;7.70;99.90;;;;;;5130592;27;20135;-81
2023/04/19 00:03:09;;;;;;;11.07;7.95;;;7.70;99.90;;;;;;5130543;27;20090;-80
2023/04/19 00:05:37;;;;;;;11.38;8.07;;;7.50;99.90;;;;;;5111875;27;20534;-80
2023/04/19 00:08:04;;;;;;;11.25;6.50;;;7.60;99.90;;;;;;5095933;27;20444;-82
2023/04/19 00:10:29;;;;;;;12.65;7.60;;;7.60;99.90;;;;;;5130792;27;20061;-81
2023/04/19 00:12:55;;;;;;;10.57;7.93;;;7.70;99.90;;;;;;5131562;27;20394;-83
2023/04/19 00:15:20;;;;;;;10.48;7.88;;;7.50;99.90;;;;;;5116545;28;20521;-82
2023/04/19 00:17:46;;;;;;;11.88;7.97;;;7.60;99.90;;;;;;5130508;27;20078;-81
2023/04/19 00:20:12;;;;;;;11.52;8.43;;;7.50;99.90;;;;;;5130286;27;20050;-81
2023/04/19 00:22:38;;;;;;;11.55;8.23;;;7.40;99.90;;;;;;5078510;28;20047;-81
2023/04/19 00:25:04;;;;;;;12.57;8.63;;;7.40;99.90;;;;;;5111687;28;20051;-82
2023/04/19 00:27:30;;;;;;;11.80;8.55;;;7.40;99.90;;;;;;5130184;28;20058;-81
2023/04/19 00:29:56;;;;;;;12.60;8.20;;;7.50;99.90;;;;;;5078049;28;20432;-82
2023/04/19 00:32:22;;;;;;;10.75;8.48;;;7.50;99.90;;;;;;5111346;28;20055;-82
2023/04/19 00:34:48;;;;;;;11.70;8.40;;;7.40;99.90;;;;;;5129762;28;20095;-80
2023/04/19 00:37:13;;;;;;;11.38;8.07;;;7.50;99.90;;;;;;5130089;28;20100;-82
2023/04/19 00:39:39;;;;;;;11.68;8.48;;;7.40;99.90;;;;;;5078044;28;20055;-81
2023/04/19 00:42:05;;;;;;;10.70;7.97;;;7.40;99.90;;;;;;5094142;28;20051;-80
2023/04/19 00:44:30;;;;;;;12.27;7.90;;;7.60;99.90;;;;;;5111561;28;20039;-81
2023/04/19 00:46:56;;;;;;;10.27;7.93;;;7.60;99.90;;;;;;5111791;28;20154;-81
2023/04/19 00:49:22;;;;;;;9.27;7.10;;;7.50;99.90;;;;;;5111370;28;20051;-81
2023/04/19 00:51:49;;;;;;;9.70;7.78;;;7.60;99.90;;;;;;5096298;27;20039;-81
2023/04/19 00:54:14;;;;;;;14.77;8.63;;;7.60;99.90;;;;;;5082058;27;20039;-79
2023/04/19 00:56:40;;;;;;;11.63;7.07;;;7.60;99.90;;;;;;5098863;27;20079;-82
2023/04/19 00:59:06;;;;;;;10.93;6.97;;;8.00;99.90;;;;;;5098876;27;20043;-81
2023/04/19 01:01:38;;;;;;;15.68;8.43;;;7.50;99.90;;;;;;5100075;27;20139;-81
2023/04/19 01:04:07;;;;;;;11.95;8.52;;;7.60;99.90;;;;;;5081670;27;20157;-81
2023/04/19 01:06:33;;;;;;;13.70;8.57;;;7.20;99.90;;;;;;5081324;27;20090;-80
2023/04/19 01:09:00;;;;;;;10.93;7.18;;;7.30;99.90;;;;;;5134544;27;20058;-81
2023/04/19 01:11:28;;;;;;;10.68;7.68;;;7.40;99.90;;;;;;5098899;27;20054;-81
2023/04/19 01:13:57;;;;;;;13.15;9.98;;;7.40;99.90;;;;;;5119253;27;20057;-81
2023/04/19 01:16:26;;;;;;;11.80;8.93;;;7.30;99.90;;;;;;5109150;27;20035;-80
2023/04/19 01:18:52;;;;;;;13.02;7.70;;;7.30;99.90;;;;;;5111332;27;20069;-81
2023/04/19 01:21:18;;;;;;;13.15;8.88;;;7.60;99.90;;;;;;5108933;27;20051;-80
2023/04/19 01:23:44;;;;;;;11.55;8.93;;;7.40;99.90;;;;;;5099441;27;20054;-81
2023/04/19 01:26:10;;;;;;;13.63;8.98;;;7.30;99.90;;;;;;5115893;27;20108;-82
2023/04/19 01:28:35;;;;;;;12.60;9.23;;;7.20;99.90;;;;;;5102685;27;20082;-81
2023/04/19 01:31:01;;;;;;;13.52;9.82;;;7.20;99.90;;;;;;5097924;27;20055;-81
2023/04/19 01:33:27;;;;;;;13.10;8.57;;;7.10;99.90;;;;;;5134371;27;20061;-81
2023/04/19 01:35:53;;;;;;;14.48;9.35;;;7.10;99.90;;;;;;5115914;27;20047;-80
2023/04/19 01:38:18;;;;;;;18.13;11.07;;;7.20;99.90;;;;;;5115670;27;20053;-81
2023/04/19 01:40:44;;;;;;;18.63;12.65;;;7.10;99.90;;;;;;5098133;27;20039;-81
2023/04/19 01:43:14;;;;;;;16.58;11.18;;;7.00;99.90;;;;;;5115457;27;20050;-83
2023/04/19 01:45:40;;;;;;;15.85;9.10;;;7.00;99.90;;;;;;5116878;27;20051;-81
2023/04/19 01:48:06;;;;;;;19.33;12.85;;;7.10;99.90;;;;;;5136950;27;20058;-82
2023/04/19 01:50:34;;;;;;;16.42;10.20;;;6.90;99.90;;;;;;5080861;27;20061;-82
2023/04/19 01:53:00;;;;;;;19.67;11.38;;;6.90;99.90;;;;;;5097846;27;20758;-80
2023/04/19 01:55:25;;;;;;;17.63;11.80;;;7.00;99.90;;;;;;5114047;27;20051;-81
2023/04/19 01:57:54;;;;;;;18.73;12.75;;;6.90;99.90;;;;;;5113428;27;20410;-80
2023/04/19 02:00:20;;;;;;;18.30;10.75;;;6.80;99.90;;;;;;5130804;27;20380;-82
2023/04/19 02:02:46;;;;;;;19.75;11.35;;;6.90;99.90;;;;;;5075762;28;20044;-81
2023/04/19 02:05:17;;;;;;;18.90;13.05;;;6.80;99.90;;;;;;5112001;28;20625;-81
2023/04/19 02:07:43;;;;;;;18.60;12.50;;;6.80;99.90;;;;;;5077534;28;20078;-82
2023/04/19 02:10:10;;;;;;;19.00;12.43;;;6.70;99.90;;;;;;5112260;28;20044;-82
2023/04/19 02:12:35;;;;;;;19.15;13.20;;;6.90;99.90;;;;;;5093219;28;20056;-81
2023/04/19 02:15:01;;;;;;;16.27;10.60;;;6.90;99.90;;;;;;5075786;28;20636;-81
2023/04/19 02:17:27;;;;;;;20.20;12.88;;;6.90;99.90;;;;;;5093763;28;20040;-81
2023/04/19 02:19:53;;;;;;;18.30;11.50;;;6.80;99.90;;;;;;5093811;28;20055;-80
2023/04/19 02:22:18;;;;;;;18.98;12.35;;;6.80;99.90;;;;;;5093790;28;20055;-81
2023/04/19 02:24:44;;;;;;;17.65;11.73;;;6.90;99.90;;;;;;5093651;28;20048;-82
2023/04/19 02:27:10;;;;;;;19.80;11.98;;;6.80;99.90;;;;;;5092408;28;20130;-82
2023/04/19 02:29:37;;;;;;;19.15;12.43;;;6.70;99.90;;;;;;5059404;28;20151;-82
2023/04/19 02:32:04;;;;;;;19.00;12.40;;;6.60;99.90;;;;;;5093129;28;20050;-82
2023/04/19 02:34:31;;;;;;;16.48;11.38;;;6.50;99.90;;;;;;5093035;28;20475;-80
2023/04/19 02:36:57;;;;;;;19.55;12.02;;;6.70;99.90;;;;;;5076216;28;20052;-80
2023/04/19 02:39:22;;;;;;;18.80;12.25;;;6.60;99.90;;;;;;5093061;28;20407;-81
2023/04/19 02:41:48;;;;;;;18.80;12.13;;;6.70;99.90;;;;;;5092567;28;20071;-82
2023/04/19 02:44:14;;;;;;;17.30;11.30;;;6.30;99.90;;;;;;5076625;28;20098;-82
2023/04/19 02:46:40;;;;;;;19.48;12.95;;;6.60;99.90;;;;;;5093950;28;20497;-82
2023/04/19 02:49:06;;;;;;;11.48;6.75;;;6.50;99.90;;;;;;5111308;28;20055;-81
2023/04/19 02:51:31;;;;;;;17.70;10.98;;;5.20;99.90;;;;;;5043916;28;20092;-81
2023/04/19 02:53:57;;;;;;;16.23;11.43;;;6.40;99.90;;;;;;5076412;28;20398;-81
2023/04/19 02:56:23;;;;;;;14.55;11.27;;;6.30;99.90;;;;;;5076162;28;20741;-81
2023/04/19 02:58:48;;;;;;;16.75;11.20;;;6.40;99.90;;;;;;5092891;28;20134;-82
2023/04/19 03:01:14;;;;;;;15.05;10.40;;;6.30;99.90;;;;;;5110789;28;20399;-82
2023/04/19 03:03:40;;;;;;;16.30;10.23;;;6.30;99.90;;;;;;5111056;28;20050;-82
2023/04/19 03:06:05;;;;;;;18.08;10.98;;;6.20;99.90;;;;;;5092404;28;20055;-80
2023/04/19 03:08:31;;;;;;;14.48;9.68;;;6.10;99.90;;;;;;5110705;28;20070;-80
2023/04/19 03:10:57;;;;;;;10.93;8.32;;;6.20;99.90;;;;;;5110766;28;20401;-80
2023/04/19 03:13:23;;;;;;;16.25;10.45;;;6.30;99.90;;;;;;5109920;28;20050;-81
2023/04/19 03:15:49;;;;;;;11.73;9.25;;;6.10;99.90;;;;;;5075469;28;20082;-81
2023/04/19 03:18:16;;;;;;;14.52;9.10;;;6.20;99.90;;;;;;5075849;28;20466;-81
2023/04/19 03:20:41;;;;;;;13.18;8.50;;;7.30;99.90;;;;;;5092239;28;20453;-80
2023/04/19 03:23:07;;;;;;;13.60;8.88;;;6.40;99.90;;;;;;5111253;28;20055;-82
2023/04/19 03:25:33;;;;;;;14.60;10.05;;;6.10;99.90;;;;;;5059575;28;20116;-82
2023/04/19 03:27:59;;;;;;;16.50;9.48;;;6.20;99.90;;;;;;5093068;28;20039;-81
2023/04/19 03:30:24;;;;;;;14.43;9.65;;;6.10;99.90;;;;;;5096440;28;20043;-82
2023/04/19 03:32:51;;;;;;;17.60;10.35;;;5.90;99.90;;;;;;5098703;28;20061;-83
2023/04/19 03:35:16;;;;;;;16.33;10.65;;;5.90;99.90;;;;;;5123270;28;20089;-82
2023/04/19 03:37:42;;;;;;;14.30;9.23;;;5.80;99.90;;;;;;5103865;28;20043;-82
2023/04/19 03:40:08;;;;;;;15.45;9.30;;;5.80;99.90;;;;;;5093106;28;20669;-81
2023/04/19 03:42:34;;;;;;;13.77;9.75;;;5.80;99.90;;;;;;5092127;28;20051;-81
2023/04/19 03:45:00;;;;;;;13.80;9.23;;;5.70;99.90;;;;;;5075933;28;20054;-80
2023/04/19 03:47:25;;;;;;;14.90;9.45;;;5.60;99.90;;;;;;5092298;28;20438;-80
2023/04/19 03:49:51;;;;;;;13.77;10.07;;;5.50;99.90;;;;;;5092444;28;20209;-81
2023/04/19 03:52:17;;;;;;;13.98;9.20;;;5.60;99.90;;;;;;5075269;28;20086;-81
2023/04/19 03:54:42;;;;;;;12.73;9.35;;;5.60;99.90;;;;;;5110128;28;20526;-82
2023/04/19 03:57:12;;;;;;;12.80;8.77;;;5.50;99.90;;;;;;5092035;28;20052;-81
2023/04/19 03:59:37;;;;;;;13.75;9.07;;;5.70;99.90;;;;;;5075603;28;20056;-82
2023/04/19 04:02:04;;;;;;;16.90;9.75;;;5.50;99.90;;;;;;5110538;28;20058;-81
2023/04/19 04:04:30;;;;;;;13.32;9.05;;;5.40;99.90;;;;;;5076611;28;20092;-81
2023/04/19 04:06:56;;;;;;;10.25;7.50;;;5.40;99.90;;;;;;5059482;28;20405;-80
2023/04/19 04:09:21;;;;;;;15.38;8.23;;;5.60;99.90;;;;;;5091491;28;20067;-81
2023/04/19 04:11:48;;;;;;;9.90;6.40;;;5.60;99.90;;;;;;5058192;28;20055;-82
2023/04/19 04:14:15;;;;;;;11.68;9.18;;;5.50;99.90;;;;;;5075878;28;20043;-82
2023/04/19 04:16:41;;;;;;;11.02;7.05;;;5.40;99.90;;;;;;5075526;28;20058;-81
2023/04/19 04:19:07;;;;;;;14.13;8.43;;;6.30;99.90;;;;;;5075319;28;20039;-82
2023/04/19 04:21:32;;;;;;;12.00;5.97;;;5.50;99.90;;;;;;5075594;28;20051;-82
2023/04/19 04:24:00;;;;;;;13.68;8.70;;;5.50;99.90;;;;;;5075692;28;20047;-81
2023/04/19 04:26:29;;;;;;;11.80;8.50;;;5.50;99.90;;;;;;5091466;28;20112;-82
2023/04/19 04:28:56;;;;;;;12.20;8.32;;;5.30;99.90;;;;;;5092900;28;20044;-82
2023/04/19 04:31:21;;;;;;;13.18;7.60;;;6.10;99.90;;;;;;5110611;28;20113;-82
2023/04/19 04:33:47;;;;;;;14.52;8.95;;;5.10;99.90;;;;;;5075717;28;20043;-81
2023/04/19 04:36:13;;;;;;;11.13;8.93;;;5.10;99.90;;;;;;5074728;28;20043;-81
2023/04/19 04:38:38;;;;;;;10.80;8.10;;;5.20;99.90;;;;;;5057503;28;20054;-81
2023/04/19 04:41:04;;;;;;;12.70;8.30;;;5.10;99.90;;;;;;5091080;28;20081;-81
2023/04/19 04:43:31;;;;;;;15.07;8.80;;;5.10;99.90;;;;;;5108680;28;20073;-81
2023/04/19 04:45:56;;;;;;;10.55;8.65;;;5.20;99.90;;;;;;5057836;28;20054;-81
2023/04/19 04:48:23;;;;;;;12.10;8.40;;;5.40;99.90;;;;;;5108952;28;20044;-82
2023/04/19 04:50:48;;;;;;;14.68;8.07;;;5.10;99.90;;;;;;5090582;28;20087;-81
2023/04/19 04:53:14;;;;;;;12.98;8.40;;;5.20;99.90;;;;;;5074334;28;20090;-81
2023/04/19 04:55:40;;;;;;;11.63;8.50;;;5.40;99.90;;;;;;5095043;28;20043;-82
2023/04/19 04:58:06;;;;;;;13.77;8.23;;;5.80;99.90;;;;;;5111471;28;20070;-82
2023/04/19 05:00:31;;;;;;;13.00;8.13;;;6.30;99.90;;;;;;5093767;28;20051;-81
2023/04/19 05:02:58;;;;;;;12.85;7.30;;;6.40;99.90;;;;;;5077509;28;20547;-81
2023/04/19 05:05:23;;;;;;;8.57;6.53;;;6.80;99.90;;;;;;5077713;28;20820;-82
2023/04/19 05:07:49;;;;;;;12.50;8.27;;;6.80;99.90;;;;;;5110568;28;20150;-81
2023/04/19 05:10:15;;;;;;;9.40;6.70;;;6.70;99.90;;;;;;5094264;28;20055;-82
2023/04/19 05:12:40;;;;;;;12.13;7.65;;;6.80;99.90;;;;;;5110428;28;20134;-83
2023/04/19 05:15:07;;;;;;;10.10;6.47;;;6.80;99.90;;;;;;5078380;28;20043;-81
2023/04/19 05:17:32;;;;;;;11.35;6.85;;;6.90;99.90;;;;;;5097711;28;20059;-80
2023/04/19 05:19:58;;;;;;;9.25;6.47;;;7.40;99.90;;;;;;5094795;28;20569;-81
2023/04/19 05:22:24;;;;;;;9.07;6.55;;;7.90;99.90;;;;;;5129156;28;20047;-81
2023/04/19 05:24:50;;;;;;;9.95;6.47;;;8.50;99.90;;;;;;5111035;28;20099;-80
2023/04/19 05:27:16;;;;;;;8.90;6.40;;;8.80;99.90;;;;;;5087279;28;20509;-80
2023/04/19 05:29:56;;;;;;;7.13;6.03;;;9.30;98.50;;;;;;5080626;28;20123;-79
2023/04/19 05:32:22;;;;;;;8.13;6.15;;;9.40;97.40;;;;;;5073171;28;20120;-79
2023/04/19 05:34:54;;;;;;;7.93;5.07;;;9.30;96.60;;;;;;5111794;28;20154;-80
2023/04/19 05:37:29;;;;;;;11.40;5.40;;;10.00;96.40;;;;;;5093928;28;20104;-81
2023/04/19 05:39:57;;;;;;;6.75;5.45;;;10.70;94.90;;;;;;5115331;27;20054;-82
2023/04/19 05:42:23;;;;;;;6.97;4.22;;;11.10;93.80;;;;;;5114754;27;20069;-81
2023/04/19 05:44:49;;;;;;;8.48;5.53;;;11.30;92.90;;;;;;5114925;27;20558;-83
2023/04/19 05:47:16;;;;;;;7.93;5.38;;;11.00;93.40;;;;;;5100660;27;20047;-80
2023/04/19 05:49:42;;;;;;;6.93;5.55;;;11.00;93.60;;;;;;5104417;27;20039;-84
2023/04/19 05:52:08;;;;;;;7.13;5.53;;;11.50;92.80;;;;;;5144611;27;20059;-83
2023/04/19 05:54:34;;;;;;;6.45;3.83;;;11.70;92.20;;;;;;5096260;27;20050;-83
2023/04/19 05:57:02;;;;;;;7.85;5.55;;;11.60;92.50;;;;;;5103905;27;20494;-85
2023/04/19 05:59:28;;;;;;;7.57;5.47;;;11.00;92.40;;;;;;5104877;27;20692;-82
2023/04/19 06:01:55;;;;;;;7.93;5.38;;;11.70;92.10;;;;;;5069558;27;20048;-86
2023/04/19 06:04:20;;;;;;;8.95;5.32;;;11.50;92.30;;;;;;5087465;27;20081;-84
2023/04/19 06:06:46;;;;;;;6.20;4.82;;;12.20;92.20;;;;;;5102432;27;20087;-84
2023/04/19 06:09:13;;;;;;;7.65;5.45;;;12.40;90.80;;;;;;5102881;28;20155;-83
2023/04/19 06:11:39;;;;;;;5.28;3.72;;;12.30;91.00;;;;;;5087481;27;20478;-84
2023/04/19 06:14:05;;;;;;;5.25;4.43;;;13.00;90.00;;;;;;5104202;27;20122;-82
2023/04/19 06:16:31;;;;;;;6.38;4.72;;;13.30;89.10;;;;;;5099404;27;20134;-84
2023/04/19 06:18:58;;;;;;;3.95;3.22;;;13.30;89.80;;;;;;5102118;27;20054;-83
2023/04/19 06:21:32;;;;;;;5.93;4.63;;;13.20;88.90;;;;;;5132568;27;20047;-82
2023/04/19 06:24:00;;;;;;;7.32;5.13;;;12.90;89.20;;;;;;5080545;27;20479;-83
2023/04/19 06:26:26;;;;;;;4.60;3.47;;;12.90;89.00;;;;;;5096897;27;20055;-82
2023/04/19 06:28:51;;;;;;;6.82;4.82;;;12.90;89.60;;;;;;5125777;27;20059;-83
2023/04/19 06:31:17;;;;;;;5.93;4.85;;;13.40;89.10;;;;;;5120550;27;20479;-82
2023/04/19 06:33:43;;;;;;;5.47;4.82;;;13.80;87.10;;;;;;5121253;27;20104;-85
2023/04/19 06:36:09;;;;;;;7.38;5.07;;;13.30;88.80;;;;;;5113553;27;20043;-81
2023/04/19 06:38:43;;;;;;;6.20;4.53;;;13.70;88.30;;;;;;5113942;27;20426;-81
2023/04/19 06:41:09;;;;;;;6.18;4.45;;;13.60;88.70;;;;;;5131121;27;20369;-80
2023/04/19 06:43:34;;;;;;;5.35;4.30;;;13.80;87.10;;;;;;5112206;27;20593;-81
2023/04/19 06:46:03;;;;;;;5.57;4.28;;;13.30;84.90;;;;;;5131198;27;20478;-81
2023/04/19 06:48:30;;;;;;;6.57;4.13;;;13.20;88.00;;;;;;5131365;27;20055;-81
2023/04/19 06:50:59;;;;;;;5.32;4.25;;;12.90;88.20;;;;;;5096119;27;20050;-80
2023/04/19 06:53:26;;;;;;;5.25;3.40;;;13.40;85.60;;;;;;5079162;27;20123;-81
2023/04/19 06:56:00;;;;;;;4.18;3.53;;;13.40;85.90;;;;;;5112427;27;20050;-81
2023/04/19 06:58:29;;;;;;;6.05;3.80;;;13.40;84.90;;;;;;5096069;27;20053;-82
2023/04/19 07:00:56;;;;;;;4.55;3.63;;;13.20;84.70;;;;;;5095755;27;20084;-82
2023/04/19 07:03:22;;;;;;;6.93;3.80;;;13.90;85.10;;;;;;5112227;27;20260;-81
2023/04/19 07:05:47;;;;;;;4.13;3.28;;;14.30;83.30;;;;;;5095800;27;20045;-82
2023/04/19 07:08:15;;;;;;;5.85;3.70;;;14.60;82.00;;;;;;5095329;27;20494;-82
2023/04/19 07:10:42;;;;;;;6.43;3.70;;;13.50;81.90;;;;;;5112435;27;20051;-82
2023/04/19 07:13:11;;;;;;;3.42;2.42;;;13.40;83.90;;;;;;5129965;27;20051;-81
2023/04/19 07:15:44;;;;;;;3.10;2.80;;;14.00;82.70;;;;;;5112112;27;20082;-80
2023/04/19 07:18:10;;;;;;;4.57;3.15;;;14.20;81.10;;;;;;5111973;27;20051;-82
2023/04/19 07:20:36;;;;;;;4.63;3.35;;;13.70;83.30;;;;;;5112145;27;20162;-82
2023/04/19 07:23:02;;;;;;;3.85;3.20;;;13.70;82.30;;;;;;5130149;27;20043;-81
2023/04/19 07:25:28;;;;;;;2.67;2.30;;;14.00;83.60;;;;;;5095151;27;20039;-83
2023/04/19 07:27:54;;;;;;;5.00;3.40;;;14.20;81.00;;;;;;5111888;27;20657;-81
2023/04/19 07:30:21;;;;;;;3.92;2.65;;;13.90;82.10;;;;;;5111848;27;20379;-81
2023/04/19 07:32:47;;;;;;;5.97;3.42;;;14.80;80.20;;;;;;5112070;27;20089;-81
2023/04/19 07:35:12;;;;;;;4.15;3.00;;;14.20;82.20;;;;;;5111621;27;20509;-81
2023/04/19 07:37:38;;;;;;;3.40;3.10;;;13.90;80.90;;;;;;5130346;27;20047;-80
2023/04/19 07:40:05;;;;;;;4.28;3.22;;;13.80;83.00;;;;;;5094964;27;20053;-80
2023/04/19 07:42:31;;;;;;;3.58;2.55;;;14.30;80.80;;;;;;5117586;27;20099;-81
2023/04/19 07:44:59;;;;;;;4.15;3.28;;;15.50;79.00;;;;;;5103745;27;20051;-81
2023/04/19 07:47:33;;;;;;;5.45;3.03;;;14.80;80.50;;;;;;5105564;27;20087;-81
2023/04/19 07:50:06;;;;;;;3.80;1.90;;;14.50;79.90;;;;;;5124255;27;20081;-81
2023/04/19 07:52:32;;;;;;;4.35;2.83;;;15.30;78.10;;;;;;5119096;27;20100;-80
2023/04/19 07:55:08;;;;;;;4.40;3.40;;;14.40;79.10;;;;;;5102461;27;20554;-81
2023/04/19 07:57:37;;;;;;;3.25;2.95;;;14.90;78.90;;;;;;5119660;27;20044;-81
2023/04/19 08:00:10;;;;;;;3.08;2.78;;;13.80;82.00;;;;;;5069164;27;20051;-80
2023/04/19 08:02:36;;;;;;;5.90;3.53;;;13.60;81.50;;;;;;5089902;27;20478;-80
2023/04/19 08:05:02;;;;;;;4.78;3.25;;;13.50;80.20;;;;;;5130010;27;20051;-81
2023/04/19 08:07:29;;;;;;;4.38;3.70;;;14.10;80.00;;;;;;5083352;28;20055;-81
2023/04/19 08:09:59;;;;;;;3.67;2.35;;;14.00;79.80;;;;;;5114299;28;20062;-81
2023/04/19 08:12:25;;;;;;;2.90;2.60;;;14.90;78.60;;;;;;5083773;28;20052;-80
2023/04/19 08:14:50;;;;;;;4.15;2.90;;;15.10;77.80;;;;;;5098980;28;20404;-81
2023/04/19 08:17:20;;;;;;;1.98;1.88;;;15.00;79.40;;;;;;5081643;28;20043;-81
2023/04/19 08:19:48;;;;;;;4.60;2.90;;;15.80;77.30;;;;;;5099452;28;20052;-82
2023/04/19 08:22:15;;;;;;;3.22;2.80;;;15.50;78.50;;;;;;5080160;28;20090;-81
2023/04/19 08:24:50;;;;;;;3.60;2.60;;;15.00;77.20;;;;;;5079748;28;20131;-81
2023/04/19 08:27:16;;;;;;;4.93;2.67;;;14.10;79.70;;;;;;5080300;28;20048;-81
2023/04/19 08:29:42;;;;;;;4.22;2.50;;;14.70;79.20;;;;;;5097425;28;20491;-82
2023/04/19 08:32:08;;;;;;;2.30;2.10;;;14.40;77.60;;;;;;5100239;28;20047;-81
2023/04/19 08:34:35;;;;;;;2.50;2.30;;;14.60;78.40;;;;;;5096542;28;20887;-79
2023/04/19 08:37:02;;;;;;;2.17;1.98;;;15.00;76.80;;;;;;5078138;28;20066;-81
2023/04/19 08:39:31;;;;;;;2.60;2.17;;;14.90;76.50;;;;;;5087534;28;20113;-82
2023/04/19 08:41:56;;;;;;;3.33;2.58;;;14.90;76.60;;;;;;5070881;28;20043;-80
2023/04/19 08:44:22;;;;;;;2.58;2.00;;;14.30;76.30;;;;;;5086817;28;20048;-77
2023/04/19 08:46:49;;;;;;;3.22;2.08;;;14.10;76.90;;;;;;5070744;28;20531;-81
2023/04/19 08:49:15;;;;;;;1.67;1.58;;;14.30;76.70;;;;;;5070545;28;20090;-80
2023/04/19 08:51:40;;;;;;;4.13;2.33;;;14.50;75.20;;;;;;5037254;28;20462;-79
2023/04/19 08:54:07;;;;;;;4.18;2.20;;;15.10;75.10;;;;;;5086259;28;20056;-81
2023/04/19 08:56:33;;;;;;;2.50;2.10;;;15.10;75.60;;;;;;5088329;28;20491;-81
2023/04/19 08:58:59;;;;;;;3.05;2.20;;;15.50;76.90;;;;;;5088789;28;20822;-81
2023/04/19 09:01:24;;;;;;;3.63;2.38;;;15.40;74.00;;;;;;5088501;28;20047;-81
2023/04/19 09:03:50;;;;;;;2.60;2.40;;;14.60;73.80;;;;;;5087370;28;20048;-81
2023/04/19 09:06:16;;;;;;;5.43;2.40;;;14.90;77.20;;;;;;5093852;28;20492;-83
2023/04/19 09:08:41;;;;;;;2.97;2.15;;;15.60;76.80;;;;;;5118331;28;20411;-81
2023/04/19 09:11:10;;;;;;;3.15;1.98;;;16.10;75.20;;;;;;5117873;28;20052;-81
2023/04/19 09:13:37;;;;;;;2.58;2.35;;;16.10;73.00;;;;;;5112279;27;20155;-81
2023/04/19 09:16:03;;;;;;;2.45;2.25;;;16.00;71.90;;;;;;5113812;27;20047;-81
2023/04/19 09:18:29;;;;;;;2.35;2.03;;;16.00;75.80;;;;;;5131288;27;20055;-81
2023/04/19 09:20:58;;;;;;;1.75;1.60;;;16.50;73.50;;;;;;5132100;27;20136;-83
2023/04/19 09:23:24;;;;;;;5.60;2.38;;;16.70;70.80;;;;;;5097500;27;20039;-81
2023/04/19 09:25:56;;;;;;;2.42;1.85;;;16.60;74.00;;;;;;5096552;27;20527;-85
2023/04/19 09:28:21;;;;;;;3.00;2.17;;;16.20;71.80;;;;;;5113696;27;20155;-81
2023/04/19 09:30:47;;;;;;;2.80;1.67;;;15.90;71.30;;;;;;5132565;27;20043;-83
2023/04/19 09:33:13;;;;;;;2.25;1.55;;;16.10;71.40;;;;;;5113449;27;20047;-81
2023/04/19 09:35:40;;;;;;;2.58;2.15;;;16.20;71.80;;;;;;5098081;27;20054;-84
2023/04/19 09:38:07;;;;;;;2.17;1.20;;;16.00;70.20;;;;;;5098521;27;20059;-82
2023/04/19 09:40:32;;;;;;;3.33;2.28;;;16.10;71.90;;;;;;5097428;27;20109;-81
2023/04/19 09:42:58;;;;;;;3.47;1.60;;;15.30;72.10;;;;;;5080419;27;20155;-77
2023/04/19 09:45:25;;;;;;;1.73;1.55;;;15.60;69.80;;;;;;5132870;27;20047;-82
2023/04/19 09:48:02;;;;;;;2.80;1.73;;;15.30;69.90;;;;;;5097360;27;20474;-81
2023/04/19 09:50:27;;;;;;;1.70;1.55;;;15.40;72.30;;;;;;5114127;27;20047;-80
2023/04/19 09:52:55;;;;;;;2.33;2.13;;;15.90;69.80;;;;;;5079997;27;20047;-82
2023/04/19 09:55:21;;;;;;;3.10;1.77;;;15.50;70.70;;;;;;5097216;27;20077;-78
2023/04/19 09:57:46;;;;;;;3.92;2.70;;;15.90;67.70;;;;;;5096743;27;20039;-81
2023/04/19 10:00:14;;;;;;;3.25;1.42;;;16.20;67.00;;;;;;5097438;27;20070;-82
2023/04/19 10:02:56;;;;;;;1.83;1.20;;;15.80;67.10;;;;;;5094496;27;20064;-82
2023/04/19 10:05:24;;;;;;;5.07;1.80;;;16.30;67.80;;;;;;5103927;27;20047;-81
2023/04/19 10:07:50;;;;;;;2.92;1.80;;;17.20;67.50;;;;;;5085904;27;20047;-81
2023/04/19 10:10:16;;;;;;;2.25;1.35;;;16.00;67.00;;;;;;5096632;27;20490;-77
2023/04/19 10:12:50;;;;;;;3.30;1.60;;;15.70;67.40;;;;;;5099222;27;20090;-78
2023/04/19 10:15:21;;;;;;;0.90;0.90;;;15.40;67.90;;;;;;5120815;27;20058;-80
2023/04/19 10:17:47;;;;;;;1.40;1.30;;;16.10;67.40;;;;;;5084424;27;20047;-83
2023/04/19 10:20:29;;;;;;;2.70;1.50;;;16.20;67.20;;;;;;5123186;27;20043;-81
2023/04/19 10:22:55;;;;;;;1.58;1.48;;;16.40;67.20;;;;;;5090248;28;20103;-79
2023/04/19 10:25:31;;;;;;;2.13;1.58;;;16.60;66.50;;;;;;5108839;28;20151;-80
2023/04/19 10:28:00;;;;;;;2.47;1.20;;;15.80;67.80;;;;;;5090265;27;20067;-79
2023/04/19 10:30:27;;;;;;;1.48;1.38;;;15.50;67.30;;;;;;5105504;27;20513;-79
2023/04/19 10:33:08;;;;;;;2.53;1.40;;;14.80;67.30;;;;;;5085669;27;20083;-80
2023/04/19 10:35:45;;;;;;;3.17;1.50;;;15.40;68.90;;;;;;5072543;27;20047;-82
2023/04/19 10:38:54;;;;;;;1.45;1.33;;;16.10;67.90;;;;;;5102532;27;20043;-78
2023/04/19 10:41:59;;;;;;;5.60;1.60;;;15.60;69.30;;;;;;5118210;27;20043;-81
2023/04/19 10:44:25;;;;;;;1.38;1.27;;;15.70;70.10;;;;;;5076985;27;20051;-81
2023/04/19 10:46:52;;;;;;;2.40;1.60;;;16.30;68.60;;;;;;5120796;27;20042;-80
2023/04/19 10:49:18;;;;;;;2.05;1.20;;;15.80;68.70;;;;;;5086641;27;20058;-81
2023/04/19 10:51:53;;;;;;;1.98;1.25;;;15.90;67.00;;;;;;5084210;27;20792;-80
2023/04/19 10:54:36;;;;;;;1.33;1.23;;;16.20;69.10;;;;;;5077562;27;20044;-80
2023/04/19 10:57:09;;;;;;;2.20;1.60;;;16.10;68.80;;;;;;5102223;27;20051;-81
2023/04/19 11:00:18;;;;;;;3.83;1.70;;;15.70;67.80;;;;;;5119575;27;20407;-81
2023/04/19 11:02:44;;;;;;;2.13;1.30;;;16.00;68.60;;;;;;5108394;27;20046;-81
2023/04/19 11:05:10;;;;;;;1.63;1.38;;;15.70;69.20;;;;;;5101978;27;20055;-81
2023/04/19 11:07:37;;;;;;;1.60;1.50;;;15.50;69.80;;;;;;5084107;27;20071;-78
2023/04/19 11:10:04;;;;;;;5.38;1.60;;;15.20;70.60;;;;;;5120657;27;20501;-81
2023/04/19 11:12:30;;;;;;;1.30;1.20;;;14.80;71.40;;;;;;5066895;27;20108;-81
2023/04/19 11:14:58;;;;;;;4.28;1.33;;;15.60;70.60;;;;;;5118842;27;20123;-80
2023/04/19 11:17:31;;;;;;;1.67;1.50;;;15.30;71.60;;;;;;5100712;27;20554;-81
2023/04/19 11:20:01;;;;;;;2.25;1.75;;;15.40;70.60;;;;;;5095069;27;20071;-80
2023/04/19 11:22:41;;;;;;;1.48;1.38;;;15.20;71.90;;;;;;5078459;27;20074;-82
2023/04/19 11:25:20;;;;;;;2.10;1.50;;;14.80;72.80;;;;;;5081095;27;20104;-82
2023/04/19 11:27:51;;;;;;;3.08;1.58;;;14.80;72.00;;;;;;5097293;27;20055;-82
2023/04/19 11:30:22;;;;;;;1.93;1.70;;;15.00;73.10;;;;;;5096304;27;20543;-82
2023/04/19 11:32:55;;;;;;;3.42;1.50;;;14.80;74.60;;;;;;5096011;27;20051;-80
2023/04/19 11:35:41;;;;;;;3.05;2.10;;;14.90;75.10;;;;;;5097673;27;20122;-80
2023/04/19 11:38:08;;;;;;;3.10;2.30;;;15.00;74.70;;;;;;5096761;27;20552;-80
2023/04/19 11:40:35;;;;;;;1.77;1.67;;;14.90;75.00;;;;;;5114748;27;20039;-81
2023/04/19 11:43:02;;;;;;;2.38;2.00;;;14.90;73.30;;;;;;5095385;27;20086;-78
2023/04/19 11:45:29;;;;;;;3.20;2.28;;;14.70;74.00;;;;;;5077428;27;20051;-81
2023/04/19 11:47:55;;;;;;;3.42;2.70;;;14.80;75.30;;;;;;5077657;27;20059;-80
2023/04/19 11:50:51;;;;;;;3.80;2.03;;;14.90;75.70;;;;;;5095234;27;20569;-82
2023/04/19 11:53:19;;;;;;;2.40;2.00;;;14.90;74.20;;;;;;5112633;27;20096;-82
2023/04/19 11:55:50;;;;;;;2.42;1.90;;;14.70;75.50;;;;;;5130050;27;20549;-81
2023/04/19 11:58:30;;;;;;;3.33;2.17;;;14.70;74.90;;;;;;5130693;27;20049;-82
2023/04/19 12:01:18;;;;;;;2.45;2.00;;;14.60;74.40;;;;;;5098052;27;20535;-78
2023/04/19 12:03:44;;;;;;;4.47;2.38;;;14.60;74.90;;;;;;5098726;27;20092;-83
2023/04/19 12:06:17;;;;;;;5.03;2.65;;;14.70;74.70;;;;;;5094652;27;20547;-83
2023/04/19 12:08:46;;;;;;;3.33;2.67;;;14.50;74.10;;;;;;5110098;27;20099;-82
2023/04/19 12:11:11;;;;;;;4.30;2.17;;;14.20;73.70;;;;;;5087001;27;20100;-82
2023/04/19 12:13:39;;;;;;;6.93;3.05;;;14.40;75.60;;;;;;5105762;27;20043;-83
2023/04/19 12:16:06;;;;;;;3.15;2.85;;;14.60;75.80;;;;;;5092242;27;20080;-79
2023/04/19 12:18:47;;;;;;;3.95;2.67;;;14.60;75.90;;;;;;5088283;28;20043;-85
2023/04/19 12:21:26;;;;;;;2.85;2.50;;;14.70;75.20;;;;;;5063825;27;20047;-79
2023/04/19 12:23:56;;;;;;;4.03;3.17;;;14.80;75.60;;;;;;5101807;28;20055;-83
2023/04/19 12:26:24;;;;;;;4.28;2.83;;;14.80;75.00;;;;;;5085455;28;20067;-84
2023/04/19 12:28:49;;;;;;;4.07;2.20;;;14.80;74.60;;;;;;5100295;28;20652;-82
2023/04/19 12:31:16;;;;;;;4.47;2.35;;;14.50;75.70;;;;;;5100079;28;20055;-85
2023/04/19 12:33:44;;;;;;;3.17;1.95;;;14.70;76.80;;;;;;5104512;28;20123;-83
2023/04/19 12:36:11;;;;;;;2.85;2.05;;;14.80;74.80;;;;;;5100747;28;20106;-85
2023/04/19 12:38:40;;;;;;;4.22;2.40;;;14.90;76.20;;;;;;5140879;28;20043;-84
2023/04/19 12:41:05;;;;;;;3.40;2.97;;;14.80;78.30;;;;;;5097382;28;20074;-81
2023/04/19 12:43:31;;;;;;;3.88;3.00;;;14.60;79.70;;;;;;5083936;28;20035;-83
2023/04/19 12:45:58;;;;;;;2.58;2.10;;;14.70;78.40;;;;;;5102675;28;20479;-82
2023/04/19 12:48:56;;;;;;;3.45;2.50;;;15.10;78.00;;;;;;5104402;27;20051;-78